Campinacu, Brazil
Current Conditions -  °F | °C
As of 1:00 PM on Friday 19 Dec 2014 (Local Time) from SBBR Reporting Station
Light Rain Light Rain  
Wind Chill: 75°   Ceiling: 1200
Heat Index: 75°   Visibility: 6mi
Dew Point: 66°   Wind: 7mph
Humidity: 73%   Direction: 80°E
Pressure: NA   Gusts: NA
Location:  13.79°S, 48.57°W
Report Text: SBBR 191500Z 08006KT 9999 -RA BKN012 FEW030TCU BKN080 24/19 Q1016
Loading
Personal Weather Stations






























Interactive Weather Map New forecast layout! Learn more

10-Day Weather Forecast

Advertisements
Track Severe Weather on mobile